UPSVAC Airport Information Service

Denver International Airport

ICAO: KDEN Country: United States
Latitude: 39.8616 Longitude: -104.673
Latest Arrival : UPSJUMP (KBIL-KDEN) Latest Departure : UPSJUMP (KDEN-KSDF)


WX CaptureLIVE
Data provided by noaa.gov | Fetched at 21:49:15

METAR : KDEN 272053Z 35008KT 10SM BKN075 BKN100 02/M06 A2971 RMK AO2 SLP074 T00171061 53011

TAF : KDEN 272043Z 2721/2824 34008KT P6SM SCT060 BKN090 FM272130 29014G20KT P6SM SCT090 SCT140 FM280700 34009KT P6SM FEW090 FM281900 VRB05KT P6SM SKC


Runway Data for KDEN
Data provided by openaviationdata.com

Runway ID Mag Var Hdg Length Elevation Surface ILS Freq ILS Id ILS Slope
7 11 79° 11980 ft 5324 ft Concrete 111.55 IDZG 3
8 11 79° 11980 ft 5324 ft Concrete 108.9 IFUI 3
16L 11 169° 12007 ft 5324 ft Concrete 111.1 ILTT 3
16R 11 169° 16011 ft 5324 ft Concrete 111.9 IDQQ 3
17L 11 169° 12008 ft 5324 ft Concrete 110.15 IBXP 3
17R 11 169° 12007 ft 5324 ft Concrete 108.5 IACX 3
25 11 259° 11980 ft 5324 ft Concrete 111.55 IERP 3
26 11 259° 11980 ft 5324 ft Concrete 108.9 IJOY 3
34L 11 349° 16011 ft 5324 ft Concrete 111.9 IDXU 3
34R 11 349° 12007 ft 5324 ft Concrete 111.1 IOUF 3
35L 11 349° 12007 ft 5324 ft Concrete 108.5 IAQD 3
35R 11 349° 12008 ft 5324 ft Concrete 110.15 IDPP 3

Denver International Airport, United States
Use only for reference purposes



Not for navigational purposes.